sensor_id;sensor_type;location;lat;lon;timestamp;P1;durP1;ratioP1;P2;durP2;ratioP2
6432;SDS011;3249;42.690;23.260;2023-07-31T00:00:06;4.70;;;4.30;;
6432;SDS011;3249;42.690;23.260;2023-07-31T00:02:36;4.30;;;4.00;;
6432;SDS011;3249;42.690;23.260;2023-07-31T00:05:05;4.40;;;4.00;;
6432;SDS011;3249;42.690;23.260;2023-07-31T00:07:34;4.00;;;3.80;;
6432;SDS011;3249;42.690;23.260;2023-07-31T00:10:03;4.53;;;4.23;;
6432;SDS011;3249;42.690;23.260;2023-07-31T00:12:37;4.57;;;4.27;;
6432;SDS011;3249;42.690;23.260;2023-07-31T00:15:07;4.70;;;4.40;;
6432;SDS011;3249;42.690;23.260;2023-07-31T00:17:36;5.70;;;5.20;;
6432;SDS011;3249;42.690;23.260;2023-07-31T00:20:05;6.43;;;5.97;;
6432;SDS011;3249;42.690;23.260;2023-07-31T00:22:36;6.23;;;5.73;;
6432;SDS011;3249;42.690;23.260;2023-07-31T00:25:05;6.20;;;5.20;;
6432;SDS011;3249;42.690;23.260;2023-07-31T00:27:37;5.53;;;5.03;;
6432;SDS011;3249;42.690;23.260;2023-07-31T00:30:10;5.97;;;5.47;;
6432;SDS011;3249;42.690;23.260;2023-07-31T00:32:40;6.27;;;5.87;;
6432;SDS011;3249;42.690;23.260;2023-07-31T00:35:09;6.20;;;5.80;;
6432;SDS011;3249;42.690;23.260;2023-07-31T00:37:38;5.80;;;5.33;;
6432;SDS011;3249;42.690;23.260;2023-07-31T00:40:08;6.97;;;6.43;;
6432;SDS011;3249;42.690;23.260;2023-07-31T00:42:39;7.27;;;6.87;;
6432;SDS011;3249;42.690;23.260;2023-07-31T00:45:09;7.80;;;7.23;;
6432;SDS011;3249;42.690;23.260;2023-07-31T00:47:38;9.10;;;8.40;;
6432;SDS011;3249;42.690;23.260;2023-07-31T00:50:07;8.43;;;7.80;;
6432;SDS011;3249;42.690;23.260;2023-07-31T00:52:38;8.50;;;7.90;;
6432;SDS011;3249;42.690;23.260;2023-07-31T00:55:07;9.03;;;8.23;;
6432;SDS011;3249;42.690;23.260;2023-07-31T00:57:39;9.10;;;8.20;;
6432;SDS011;3249;42.690;23.260;2023-07-31T01:00:11;10.00;;;9.20;;
6432;SDS011;3249;42.690;23.260;2023-07-31T01:02:40;11.00;;;10.00;;
6432;SDS011;3249;42.690;23.260;2023-07-31T01:05:09;10.93;;;10.03;;
6432;SDS011;3249;42.690;23.260;2023-07-31T01:07:41;11.50;;;10.60;;
6432;SDS011;3249;42.690;23.260;2023-07-31T01:10:20;14.10;;;12.87;;
6432;SDS011;3249;42.690;23.260;2023-07-31T01:12:54;13.57;;;12.37;;
6432;SDS011;3249;42.690;23.260;2023-07-31T01:15:25;14.40;;;13.10;;
6432;SDS011;3249;42.690;23.260;2023-07-31T01:17:54;14.37;;;13.13;;
6432;SDS011;3249;42.690;23.260;2023-07-31T01:20:25;14.17;;;13.03;;
6432;SDS011;3249;42.690;23.260;2023-07-31T01:23:08;15.27;;;13.87;;
6432;SDS011;3249;42.690;23.260;2023-07-31T01:28:50;17.47;;;15.77;;
6432;SDS011;3249;42.690;23.260;2023-07-31T01:31:24;19.97;;;16.57;;
6432;SDS011;3249;42.690;23.260;2023-07-31T01:33:54;21.20;;;19.10;;
6432;SDS011;3249;42.690;23.260;2023-07-31T01:36:28;21.77;;;19.77;;
6432;SDS011;3249;42.690;23.260;2023-07-31T01:38:59;22.37;;;20.07;;
6432;SDS011;3249;42.690;23.260;2023-07-31T01:41:33;23.03;;;20.83;;
6432;SDS011;3249;42.690;23.260;2023-07-31T01:44:02;24.77;;;22.30;;
6432;SDS011;3249;42.690;23.260;2023-07-31T01:46:31;23.97;;;21.77;;
6432;SDS011;3249;42.690;23.260;2023-07-31T01:49:00;24.83;;;22.43;;
6432;SDS011;3249;42.690;23.260;2023-07-31T01:51:31;24.57;;;22.17;;
6432;SDS011;3249;42.690;23.260;2023-07-31T01:54:01;25.43;;;22.93;;
6432;SDS011;3249;42.690;23.260;2023-07-31T01:56:33;26.60;;;23.70;;
6432;SDS011;3249;42.690;23.260;2023-07-31T01:59:03;25.30;;;22.57;;
6432;SDS011;3249;42.690;23.260;2023-07-31T02:01:32;27.03;;;24.20;;
6432;SDS011;3249;42.690;23.260;2023-07-31T02:04:01;25.87;;;23.17;;
6432;SDS011;3249;42.690;23.260;2023-07-31T02:06:30;25.83;;;23.33;;
6432;SDS011;3249;42.690;23.260;2023-07-31T02:08:59;26.97;;;24.20;;
6432;SDS011;3249;42.690;23.260;2023-07-31T02:11:33;26.03;;;23.47;;
6432;SDS011;3249;42.690;23.260;2023-07-31T02:14:03;26.63;;;23.93;;
6432;SDS011;3249;42.690;23.260;2023-07-31T02:16:32;25.80;;;23.20;;
6432;SDS011;3249;42.690;23.260;2023-07-31T02:19:03;25.20;;;22.80;;
6432;SDS011;3249;42.690;23.260;2023-07-31T02:21:32;25.73;;;23.23;;
6432;SDS011;3249;42.690;23.260;2023-07-31T02:24:02;26.20;;;23.60;;
6432;SDS011;3249;42.690;23.260;2023-07-31T02:26:34;26.50;;;23.83;;
6432;SDS011;3249;42.690;23.260;2023-07-31T02:29:04;26.60;;;23.60;;
6432;SDS011;3249;42.690;23.260;2023-07-31T02:31:33;25.33;;;22.83;;
6432;SDS011;3249;42.690;23.260;2023-07-31T02:34:02;26.27;;;23.70;;
6432;SDS011;3249;42.690;23.260;2023-07-31T02:36:31;24.50;;;22.20;;
6432;SDS011;3249;42.690;23.260;2023-07-31T02:39:00;25.30;;;22.90;;
6432;SDS011;3249;42.690;23.260;2023-07-31T02:41:30;24.13;;;21.77;;
6432;SDS011;3249;42.690;23.260;2023-07-31T02:44:01;24.53;;;22.13;;
6432;SDS011;3249;42.690;23.260;2023-07-31T02:46:30;25.20;;;22.70;;
6432;SDS011;3249;42.690;23.260;2023-07-31T02:48:59;26.37;;;23.77;;
6432;SDS011;3249;42.690;23.260;2023-07-31T02:51:28;24.07;;;21.87;;
6432;SDS011;3249;42.690;23.260;2023-07-31T02:53:58;24.73;;;22.23;;
6432;SDS011;3249;42.690;23.260;2023-07-31T02:56:26;26.23;;;23.67;;
6432;SDS011;3249;42.690;23.260;2023-07-31T02:58:55;23.80;;;21.53;;
6432;SDS011;3249;42.690;23.260;2023-07-31T03:01:27;23.80;;;21.60;;
6432;SDS011;3249;42.690;23.260;2023-07-31T03:03:56;23.37;;;21.07;;
6432;SDS011;3249;42.690;23.260;2023-07-31T03:06:26;25.67;;;22.20;;
6432;SDS011;3249;42.690;23.260;2023-07-31T03:08:55;25.27;;;22.90;;
6432;SDS011;3249;42.690;23.260;2023-07-31T03:11:24;25.77;;;23.27;;
6432;SDS011;3249;42.690;23.260;2023-07-31T03:13:53;26.53;;;23.97;;
6432;SDS011;3249;42.690;23.260;2023-07-31T03:16:22;25.50;;;23.03;;
6432;SDS011;3249;42.690;23.260;2023-07-31T03:18:54;26.80;;;23.90;;
6432;SDS011;3249;42.690;23.260;2023-07-31T03:21:23;25.60;;;22.93;;
6432;SDS011;3249;42.690;23.260;2023-07-31T03:23:52;26.27;;;23.67;;
6432;SDS011;3249;42.690;23.260;2023-07-31T03:26:21;25.93;;;23.43;;
6432;SDS011;3249;42.690;23.260;2023-07-31T03:28:50;25.73;;;23.10;;
6432;SDS011;3249;42.690;23.260;2023-07-31T03:31:19;26.60;;;23.83;;
6432;SDS011;3249;42.690;23.260;2023-07-31T03:33:49;25.23;;;22.53;;
6432;SDS011;3249;42.690;23.260;2023-07-31T03:36:20;25.83;;;23.33;;
6432;SDS011;3249;42.690;23.260;2023-07-31T03:38:49;26.57;;;24.00;;
6432;SDS011;3249;42.690;23.260;2023-07-31T03:41:19;27.77;;;24.73;;
6432;SDS011;3249;42.690;23.260;2023-07-31T03:43:49;25.17;;;22.63;;
6432;SDS011;3249;42.690;23.260;2023-07-31T03:46:21;24.87;;;22.23;;
6432;SDS011;3249;42.690;23.260;2023-07-31T03:48:50;27.77;;;24.83;;
6432;SDS011;3249;42.690;23.260;2023-07-31T03:51:22;28.87;;;25.23;;
6432;SDS011;3249;42.690;23.260;2023-07-31T03:53:51;37.80;;;32.83;;
6432;SDS011;3249;42.690;23.260;2023-07-31T03:56:20;36.27;;;31.40;;
6432;SDS011;3249;42.690;23.260;2023-07-31T03:58:49;29.77;;;26.63;;
6432;SDS011;3249;42.690;23.260;2023-07-31T04:01:19;28.23;;;25.23;;
6432;SDS011;3249;42.690;23.260;2023-07-31T04:03:48;29.03;;;25.70;;
6432;SDS011;3249;42.690;23.260;2023-07-31T04:06:17;28.63;;;25.53;;
6432;SDS011;3249;42.690;23.260;2023-07-31T04:08:48;28.07;;;25.27;;
6432;SDS011;3249;42.690;23.260;2023-07-31T04:11:17;28.43;;;25.43;;
6432;SDS011;3249;42.690;23.260;2023-07-31T04:13:47;32.80;;;26.23;;
6432;SDS011;3249;42.690;23.260;2023-07-31T04:16:16;28.07;;;25.17;;
6432;SDS011;3249;42.690;23.260;2023-07-31T04:18:47;27.77;;;24.97;;
6432;SDS011;3249;42.690;23.260;2023-07-31T04:21:18;26.07;;;23.27;;
6432;SDS011;3249;42.690;23.260;2023-07-31T04:23:49;27.27;;;24.37;;
6432;SDS011;3249;42.690;23.260;2023-07-31T04:26:21;27.50;;;24.27;;
6432;SDS011;3249;42.690;23.260;2023-07-31T04:28:51;26.37;;;23.57;;
6432;SDS011;3249;42.690;23.260;2023-07-31T04:31:20;25.83;;;23.13;;
6432;SDS011;3249;42.690;23.260;2023-07-31T04:33:48;26.23;;;23.63;;
6432;SDS011;3249;42.690;23.260;2023-07-31T04:36:17;24.37;;;21.93;;
6432;SDS011;3249;42.690;23.260;2023-07-31T04:38:49;25.13;;;22.50;;
6432;SDS011;3249;42.690;23.260;2023-07-31T04:41:19;27.40;;;24.43;;
6432;SDS011;3249;42.690;23.260;2023-07-31T04:43:47;24.23;;;21.77;;
6432;SDS011;3249;42.690;23.260;2023-07-31T04:46:16;25.27;;;22.77;;
6432;SDS011;3249;42.690;23.260;2023-07-31T04:48:45;23.30;;;20.83;;
6432;SDS011;3249;42.690;23.260;2023-07-31T04:51:14;25.63;;;22.93;;
6432;SDS011;3249;42.690;23.260;2023-07-31T04:53:43;25.23;;;22.57;;
6432;SDS011;3249;42.690;23.260;2023-07-31T04:56:15;25.83;;;23.27;;
6432;SDS011;3249;42.690;23.260;2023-07-31T04:58:44;24.13;;;21.63;;
6432;SDS011;3249;42.690;23.260;2023-07-31T05:01:13;25.40;;;22.83;;
6432;SDS011;3249;42.690;23.260;2023-07-31T05:03:42;23.73;;;21.23;;
6432;SDS011;3249;42.690;23.260;2023-07-31T05:06:11;24.90;;;22.27;;
6432;SDS011;3249;42.690;23.260;2023-07-31T05:08:40;23.83;;;20.47;;
6432;SDS011;3249;42.690;23.260;2023-07-31T05:11:09;23.50;;;21.10;;
6432;SDS011;3249;42.690;23.260;2023-07-31T05:13:41;21.67;;;19.50;;
6432;SDS011;3249;42.690;23.260;2023-07-31T05:16:10;21.77;;;19.67;;
6432;SDS011;3249;42.690;23.260;2023-07-31T05:18:39;22.30;;;20.13;;
6432;SDS011;3249;42.690;23.260;2023-07-31T05:21:08;19.70;;;17.60;;
6432;SDS011;3249;42.690;23.260;2023-07-31T05:23:37;19.00;;;17.10;;
6432;SDS011;3249;42.690;23.260;2023-07-31T05:26:06;18.10;;;16.13;;
6432;SDS011;3249;42.690;23.260;2023-07-31T05:28:36;15.80;;;14.33;;
6432;SDS011;3249;42.690;23.260;2023-07-31T05:31:08;16.37;;;14.93;;
6432;SDS011;3249;42.690;23.260;2023-07-31T05:33:37;16.77;;;15.17;;
6432;SDS011;3249;42.690;23.260;2023-07-31T05:36:06;14.60;;;13.17;;
6432;SDS011;3249;42.690;23.260;2023-07-31T05:38:35;14.03;;;12.80;;
6432;SDS011;3249;42.690;23.260;2023-07-31T05:41:04;13.17;;;12.07;;
6432;SDS011;3249;42.690;23.260;2023-07-31T05:43:33;13.13;;;11.93;;
6432;SDS011;3249;42.690;23.260;2023-07-31T05:46:02;13.03;;;11.83;;
6432;SDS011;3249;42.690;23.260;2023-07-31T05:48:34;11.63;;;10.60;;
6432;SDS011;3249;42.690;23.260;2023-07-31T05:51:04;11.53;;;10.50;;
6432;SDS011;3249;42.690;23.260;2023-07-31T05:53:33;10.03;;;9.13;;
6432;SDS011;3249;42.690;23.260;2023-07-31T05:56:06;9.17;;;8.47;;
6432;SDS011;3249;42.690;23.260;2023-07-31T05:58:35;9.03;;;8.23;;
6432;SDS011;3249;42.690;23.260;2023-07-31T06:01:04;8.90;;;8.20;;
6432;SDS011;3249;42.690;23.260;2023-07-31T06:03:36;8.23;;;7.53;;
6432;SDS011;3249;42.690;23.260;2023-07-31T06:06:05;7.07;;;6.50;;
6432;SDS011;3249;42.690;23.260;2023-07-31T06:08:33;6.70;;;6.30;;
6432;SDS011;3249;42.690;23.260;2023-07-31T06:11:02;6.50;;;6.00;;
6432;SDS011;3249;42.690;23.260;2023-07-31T06:13:32;6.37;;;5.97;;
6432;SDS011;3249;42.690;23.260;2023-07-31T06:16:02;6.37;;;5.87;;
6432;SDS011;3249;42.690;23.260;2023-07-31T06:18:31;8.07;;;5.70;;
6432;SDS011;3249;42.690;23.260;2023-07-31T06:21:03;8.60;;;6.03;;
6432;SDS011;3249;42.690;23.260;2023-07-31T06:23:32;6.60;;;6.10;;
6432;SDS011;3249;42.690;23.260;2023-07-31T06:26:01;8.27;;;6.03;;
6432;SDS011;3249;42.690;23.260;2023-07-31T06:28:31;6.00;;;5.60;;
6432;SDS011;3249;42.690;23.260;2023-07-31T06:31:00;6.13;;;5.63;;
6432;SDS011;3249;42.690;23.260;2023-07-31T06:33:29;6.57;;;5.90;;
6432;SDS011;3249;42.690;23.260;2023-07-31T06:35:58;6.33;;;5.83;;
6432;SDS011;3249;42.690;23.260;2023-07-31T06:38:29;6.33;;;5.93;;
6432;SDS011;3249;42.690;23.260;2023-07-31T06:40:59;5.50;;;5.10;;
6432;SDS011;3249;42.690;23.260;2023-07-31T06:43:28;6.00;;;5.50;;
6432;SDS011;3249;42.690;23.260;2023-07-31T06:45:57;5.57;;;5.07;;
6432;SDS011;3249;42.690;23.260;2023-07-31T06:48:25;6.27;;;5.60;;
6432;SDS011;3249;42.690;23.260;2023-07-31T06:50:55;5.20;;;4.80;;
6432;SDS011;3249;42.690;23.260;2023-07-31T06:53:24;5.20;;;4.80;;
6432;SDS011;3249;42.690;23.260;2023-07-31T06:55:55;6.00;;;5.50;;
6432;SDS011;3249;42.690;23.260;2023-07-31T06:58:24;4.90;;;4.50;;
6432;SDS011;3249;42.690;23.260;2023-07-31T07:00:53;5.40;;;4.87;;
6432;SDS011;3249;42.690;23.260;2023-07-31T07:03:22;5.07;;;4.67;;
6432;SDS011;3249;42.690;23.260;2023-07-31T07:05:51;4.43;;;4.13;;
6432;SDS011;3249;42.690;23.260;2023-07-31T07:08:20;3.90;;;3.70;;
6432;SDS011;3249;42.690;23.260;2023-07-31T07:10:49;4.30;;;4.00;;
6432;SDS011;3249;42.690;23.260;2023-07-31T07:13:21;4.53;;;4.23;;
6432;SDS011;3249;42.690;23.260;2023-07-31T07:15:51;4.07;;;3.87;;
6432;SDS011;3249;42.690;23.260;2023-07-31T07:18:20;4.37;;;4.10;;
6432;SDS011;3249;42.690;23.260;2023-07-31T07:20:50;4.07;;;3.87;;
6432;SDS011;3249;42.690;23.260;2023-07-31T07:23:20;4.07;;;3.83;;
6432;SDS011;3249;42.690;23.260;2023-07-31T07:25:49;5.73;;;4.03;;
6432;SDS011;3249;42.690;23.260;2023-07-31T07:28:22;4.50;;;4.10;;
6432;SDS011;3249;42.690;23.260;2023-07-31T07:30:51;4.50;;;4.20;;
6432;SDS011;3249;42.690;23.260;2023-07-31T07:33:24;4.87;;;4.47;;
6432;SDS011;3249;42.690;23.260;2023-07-31T07:35:52;4.73;;;4.33;;
6432;SDS011;3249;42.690;23.260;2023-07-31T07:38:21;4.80;;;4.37;;
6432;SDS011;3249;42.690;23.260;2023-07-31T07:40:50;4.33;;;3.97;;
6432;SDS011;3249;42.690;23.260;2023-07-31T07:43:19;3.97;;;3.70;;
6432;SDS011;3249;42.690;23.260;2023-07-31T07:45:51;4.87;;;3.40;;
6432;SDS011;3249;42.690;23.260;2023-07-31T07:48:22;4.03;;;3.73;;
6432;SDS011;3249;42.690;23.260;2023-07-31T07:50:51;4.17;;;3.87;;
6432;SDS011;3249;42.690;23.260;2023-07-31T07:53:20;4.23;;;3.83;;
6432;SDS011;3249;42.690;23.260;2023-07-31T07:55:49;3.67;;;3.47;;
6432;SDS011;3249;42.690;23.260;2023-07-31T07:58:18;4.57;;;4.27;;
6432;SDS011;3249;42.690;23.260;2023-07-31T08:00:53;3.70;;;3.50;;
6432;SDS011;3249;42.690;23.260;2023-07-31T08:03:22;4.20;;;4.00;;
6432;SDS011;3249;42.690;23.260;2023-07-31T08:05:51;4.27;;;3.97;;
6432;SDS011;3249;42.690;23.260;2023-07-31T08:08:20;4.07;;;3.70;;
6432;SDS011;3249;42.690;23.260;2023-07-31T08:10:50;4.30;;;4.00;;
6432;SDS011;3249;42.690;23.260;2023-07-31T08:13:19;4.87;;;3.40;;
6432;SDS011;3249;42.690;23.260;2023-07-31T08:15:48;4.73;;;3.73;;
6432;SDS011;3249;42.690;23.260;2023-07-31T08:18:20;5.27;;;4.20;;
6432;SDS011;3249;42.690;23.260;2023-07-31T08:20:50;5.27;;;4.30;;
6432;SDS011;3249;42.690;23.260;2023-07-31T08:23:19;4.73;;;4.30;;
6432;SDS011;3249;42.690;23.260;2023-07-31T08:25:48;4.47;;;4.17;;
6432;SDS011;3249;42.690;23.260;2023-07-31T08:28:18;6.40;;;4.20;;
6432;SDS011;3249;42.690;23.260;2023-07-31T08:30:46;5.80;;;3.60;;
6432;SDS011;3249;42.690;23.260;2023-07-31T08:33:16;4.10;;;3.70;;
6432;SDS011;3249;42.690;23.260;2023-07-31T08:35:48;4.80;;;3.83;;
6432;SDS011;3249;42.690;23.260;2023-07-31T08:38:17;3.80;;;3.43;;
6432;SDS011;3249;42.690;23.260;2023-07-31T08:40:47;3.97;;;3.77;;
6432;SDS011;3249;42.690;23.260;2023-07-31T08:43:15;3.63;;;3.43;;
6432;SDS011;3249;42.690;23.260;2023-07-31T08:45:47;3.87;;;3.17;;
6432;SDS011;3249;42.690;23.260;2023-07-31T08:48:22;3.90;;;3.30;;
6432;SDS011;3249;42.690;23.260;2023-07-31T08:50:54;3.60;;;3.30;;
6432;SDS011;3249;42.690;23.260;2023-07-31T08:53:23;3.90;;;3.50;;
6432;SDS011;3249;42.690;23.260;2023-07-31T08:55:52;3.40;;;3.20;;
6432;SDS011;3249;42.690;23.260;2023-07-31T08:58:22;3.30;;;3.10;;
6432;SDS011;3249;42.690;23.260;2023-07-31T09:00:53;3.70;;;3.20;;
6432;SDS011;3249;42.690;23.260;2023-07-31T09:03:27;3.47;;;3.17;;
6432;SDS011;3249;42.690;23.260;2023-07-31T09:05:57;3.40;;;3.20;;
6432;SDS011;3249;42.690;23.260;2023-07-31T09:08:29;4.00;;;3.60;;
6432;SDS011;3249;42.690;23.260;2023-07-31T09:10:59;3.67;;;3.47;;
6432;SDS011;3249;42.690;23.260;2023-07-31T09:13:30;4.23;;;3.87;;
6432;SDS011;3249;42.690;23.260;2023-07-31T09:16:00;3.73;;;3.53;;
6432;SDS011;3249;42.690;23.260;2023-07-31T09:18:32;3.97;;;3.67;;
6432;SDS011;3249;42.690;23.260;2023-07-31T09:21:22;3.97;;;3.77;;
6432;SDS011;3249;42.690;23.260;2023-07-31T09:23:53;4.20;;;3.87;;
6432;SDS011;3249;42.690;23.260;2023-07-31T09:26:29;7.90;;;4.40;;
6432;SDS011;3249;42.690;23.260;2023-07-31T09:29:00;4.00;;;3.70;;
6432;SDS011;3249;42.690;23.260;2023-07-31T09:31:33;4.03;;;3.73;;
6432;SDS011;3249;42.690;23.260;2023-07-31T09:34:11;4.30;;;4.00;;
6432;SDS011;3249;42.690;23.260;2023-07-31T09:36:40;3.90;;;3.60;;
6432;SDS011;3249;42.690;23.260;2023-07-31T09:39:10;6.13;;;4.00;;
6432;SDS011;3249;42.690;23.260;2023-07-31T09:41:46;3.80;;;3.50;;
6432;SDS011;3249;42.690;23.260;2023-07-31T09:44:17;3.30;;;3.10;;
6432;SDS011;3249;42.690;23.260;2023-07-31T09:46:46;3.70;;;3.50;;
6432;SDS011;3249;42.690;23.260;2023-07-31T09:49:18;3.53;;;3.30;;
6432;SDS011;3249;42.690;23.260;2023-07-31T09:51:48;4.20;;;2.93;;
6432;SDS011;3249;42.690;23.260;2023-07-31T09:54:17;3.67;;;3.37;;
6432;SDS011;3249;42.690;23.260;2023-07-31T09:56:46;3.50;;;3.20;;
6432;SDS011;3249;42.690;23.260;2023-07-31T09:59:17;5.90;;;3.10;;
6432;SDS011;3249;42.690;23.260;2023-07-31T10:01:47;5.03;;;3.50;;
6432;SDS011;3249;42.690;23.260;2023-07-31T10:04:21;3.50;;;3.23;;
6432;SDS011;3249;42.690;23.260;2023-07-31T10:06:58;6.13;;;3.17;;
6432;SDS011;3249;42.690;23.260;2023-07-31T10:09:30;6.17;;;2.90;;
6432;SDS011;3249;42.690;23.260;2023-07-31T10:12:00;4.83;;;2.77;;
6432;SDS011;3249;42.690;23.260;2023-07-31T10:14:35;3.43;;;2.87;;
6432;SDS011;3249;42.690;23.260;2023-07-31T10:17:04;3.20;;;2.97;;
6432;SDS011;3249;42.690;23.260;2023-07-31T10:19:38;3.37;;;3.03;;
6432;SDS011;3249;42.690;23.260;2023-07-31T10:22:08;3.27;;;3.03;;
6432;SDS011;3249;42.690;23.260;2023-07-31T10:24:38;2.90;;;2.70;;
6432;SDS011;3249;42.690;23.260;2023-07-31T10:27:08;3.70;;;3.37;;
6432;SDS011;3249;42.690;23.260;2023-07-31T10:29:38;4.80;;;3.07;;
6432;SDS011;3249;42.690;23.260;2023-07-31T10:32:09;3.53;;;3.03;;
6432;SDS011;3249;42.690;23.260;2023-07-31T10:34:42;3.50;;;2.67;;
6432;SDS011;3249;42.690;23.260;2023-07-31T10:37:24;2.63;;;2.50;;
6432;SDS011;3249;42.690;23.260;2023-07-31T10:40:00;4.60;;;3.00;;
6432;SDS011;3249;42.690;23.260;2023-07-31T10:42:32;3.10;;;2.90;;
6432;SDS011;3249;42.690;23.260;2023-07-31T10:45:05;2.87;;;2.67;;
6432;SDS011;3249;42.690;23.260;2023-07-31T10:47:39;3.80;;;2.93;;
6432;SDS011;3249;42.690;23.260;2023-07-31T10:50:21;2.87;;;2.67;;
6432;SDS011;3249;42.690;23.260;2023-07-31T10:52:52;3.07;;;2.87;;
6432;SDS011;3249;42.690;23.260;2023-07-31T10:55:27;5.20;;;2.83;;
6432;SDS011;3249;42.690;23.260;2023-07-31T10:58:04;2.90;;;2.70;;
6432;SDS011;3249;42.690;23.260;2023-07-31T11:00:36;3.40;;;2.47;;
6432;SDS011;3249;42.690;23.260;2023-07-31T11:03:08;3.80;;;2.73;;
6432;SDS011;3249;42.690;23.260;2023-07-31T11:05:51;3.97;;;2.57;;
6432;SDS011;3249;42.690;23.260;2023-07-31T11:08:24;2.40;;;2.30;;
6432;SDS011;3249;42.690;23.260;2023-07-31T11:11:04;2.77;;;2.60;;
6432;SDS011;3249;42.690;23.260;2023-07-31T11:13:45;2.70;;;2.20;;
6432;SDS011;3249;42.690;23.260;2023-07-31T11:16:18;3.20;;;2.43;;
6432;SDS011;3249;42.690;23.260;2023-07-31T11:18:48;2.57;;;2.33;;
6432;SDS011;3249;42.690;23.260;2023-07-31T11:21:21;4.00;;;2.57;;
6432;SDS011;3249;42.690;23.260;2023-07-31T11:23:52;3.03;;;2.83;;
6432;SDS011;3249;42.690;23.260;2023-07-31T11:26:26;2.80;;;2.60;;
6432;SDS011;3249;42.690;23.260;2023-07-31T11:28:56;4.87;;;2.77;;
6432;SDS011;3249;42.690;23.260;2023-07-31T11:31:25;3.70;;;2.80;;
6432;SDS011;3249;42.690;23.260;2023-07-31T11:34:04;3.80;;;3.40;;
6432;SDS011;3249;42.690;23.260;2023-07-31T11:36:37;4.03;;;3.70;;
6432;SDS011;3249;42.690;23.260;2023-07-31T11:39:07;3.87;;;3.43;;
6432;SDS011;3249;42.690;23.260;2023-07-31T11:41:40;3.50;;;3.30;;
6432;SDS011;3249;42.690;23.260;2023-07-31T11:44:09;3.43;;;3.20;;
6432;SDS011;3249;42.690;23.260;2023-07-31T11:46:39;3.53;;;3.33;;
6432;SDS011;3249;42.690;23.260;2023-07-31T11:49:08;4.10;;;3.90;;
6432;SDS011;3249;42.690;23.260;2023-07-31T11:51:40;4.60;;;4.10;;
6432;SDS011;3249;42.690;23.260;2023-07-31T11:54:12;4.70;;;4.07;;
6432;SDS011;3249;42.690;23.260;2023-07-31T11:56:45;3.73;;;3.53;;
6432;SDS011;3249;42.690;23.260;2023-07-31T11:59:15;5.60;;;4.07;;
6432;SDS011;3249;42.690;23.260;2023-07-31T12:01:44;5.23;;;4.73;;
6432;SDS011;3249;42.690;23.260;2023-07-31T12:04:16;5.43;;;5.10;;
6432;SDS011;3249;42.690;23.260;2023-07-31T12:06:50;6.07;;;5.57;;
6432;SDS011;3249;42.690;23.260;2023-07-31T12:09:26;5.90;;;5.50;;
6432;SDS011;3249;42.690;23.260;2023-07-31T12:11:54;6.80;;;6.17;;
6432;SDS011;3249;42.690;23.260;2023-07-31T12:14:24;7.67;;;7.17;;
6432;SDS011;3249;42.690;23.260;2023-07-31T12:16:55;7.93;;;7.30;;
6432;SDS011;3249;42.690;23.260;2023-07-31T12:19:25;8.07;;;7.37;;
6432;SDS011;3249;42.690;23.260;2023-07-31T12:21:58;7.43;;;6.93;;
6432;SDS011;3249;42.690;23.260;2023-07-31T12:24:27;6.93;;;6.40;;
6432;SDS011;3249;42.690;23.260;2023-07-31T12:26:57;7.20;;;6.60;;
6432;SDS011;3249;42.690;23.260;2023-07-31T12:29:33;6.10;;;5.60;;
6432;SDS011;3249;42.690;23.260;2023-07-31T12:32:03;6.93;;;6.37;;
6432;SDS011;3249;42.690;23.260;2023-07-31T12:34:35;5.97;;;5.57;;
6432;SDS011;3249;42.690;23.260;2023-07-31T12:37:13;5.77;;;5.37;;
6432;SDS011;3249;42.690;23.260;2023-07-31T12:39:43;6.67;;;6.07;;
6432;SDS011;3249;42.690;23.260;2023-07-31T12:42:12;6.60;;;6.10;;
6432;SDS011;3249;42.690;23.260;2023-07-31T12:44:40;6.97;;;6.37;;
6432;SDS011;3249;42.690;23.260;2023-07-31T12:47:09;7.60;;;7.10;;
6432;SDS011;3249;42.690;23.260;2023-07-31T12:49:40;6.20;;;5.80;;
6432;SDS011;3249;42.690;23.260;2023-07-31T12:52:13;7.67;;;7.00;;
6432;SDS011;3249;42.690;23.260;2023-07-31T12:54:41;7.60;;;7.00;;
6432;SDS011;3249;42.690;23.260;2023-07-31T12:57:10;7.47;;;6.90;;
6432;SDS011;3249;42.690;23.260;2023-07-31T12:59:39;6.37;;;5.87;;
6432;SDS011;3249;42.690;23.260;2023-07-31T13:02:08;6.93;;;6.43;;
6432;SDS011;3249;42.690;23.260;2023-07-31T13:04:37;7.13;;;6.53;;
6432;SDS011;3249;42.690;23.260;2023-07-31T13:07:06;6.60;;;6.20;;
6432;SDS011;3249;42.690;23.260;2023-07-31T13:09:38;6.33;;;5.83;;
6432;SDS011;3249;42.690;23.260;2023-07-31T13:12:07;6.83;;;5.93;;
6432;SDS011;3249;42.690;23.260;2023-07-31T13:14:37;6.93;;;6.43;;
6432;SDS011;3249;42.690;23.260;2023-07-31T13:17:05;6.67;;;6.23;;
6432;SDS011;3249;42.690;23.260;2023-07-31T13:19:35;5.70;;;5.40;;
6432;SDS011;3249;42.690;23.260;2023-07-31T13:22:03;6.63;;;6.13;;
6432;SDS011;3249;42.690;23.260;2023-07-31T13:24:32;5.70;;;5.40;;
6432;SDS011;3249;42.690;23.260;2023-07-31T13:27:04;5.87;;;5.57;;
6432;SDS011;3249;42.690;23.260;2023-07-31T13:29:33;6.13;;;5.73;;
6432;SDS011;3249;42.690;23.260;2023-07-31T13:32:03;12.53;;;5.30;;
6432;SDS011;3249;42.690;23.260;2023-07-31T13:34:33;5.87;;;5.47;;
6432;SDS011;3249;42.690;23.260;2023-07-31T13:37:01;6.73;;;6.13;;
6432;SDS011;3249;42.690;23.260;2023-07-31T13:39:31;6.53;;;5.93;;
6432;SDS011;3249;42.690;23.260;2023-07-31T13:42:01;7.27;;;6.57;;
6432;SDS011;3249;42.690;23.260;2023-07-31T13:44:33;6.03;;;5.53;;
6432;SDS011;3249;42.690;23.260;2023-07-31T13:47:03;5.60;;;5.10;;
6432;SDS011;3249;42.690;23.260;2023-07-31T13:49:32;6.07;;;5.53;;
6432;SDS011;3249;42.690;23.260;2023-07-31T13:52:02;6.17;;;4.87;;
6432;SDS011;3249;42.690;23.260;2023-07-31T13:54:31;6.50;;;6.00;;
6432;SDS011;3249;42.690;23.260;2023-07-31T13:57:00;5.47;;;5.17;;
6432;SDS011;3249;42.690;23.260;2023-07-31T13:59:37;5.57;;;5.13;;
6432;SDS011;3249;42.690;23.260;2023-07-31T14:02:07;7.43;;;4.77;;
6432;SDS011;3249;42.690;23.260;2023-07-31T14:04:37;5.80;;;5.27;;
6432;SDS011;3249;42.690;23.260;2023-07-31T14:07:06;5.00;;;4.70;;
6432;SDS011;3249;42.690;23.260;2023-07-31T14:09:37;5.50;;;5.07;;
6432;SDS011;3249;42.690;23.260;2023-07-31T14:12:09;5.63;;;5.23;;
6432;SDS011;3249;42.690;23.260;2023-07-31T14:14:41;5.10;;;4.60;;
6432;SDS011;3249;42.690;23.260;2023-07-31T14:17:10;5.60;;;5.00;;
6432;SDS011;3249;42.690;23.260;2023-07-31T14:19:39;6.47;;;4.90;;
6432;SDS011;3249;42.690;23.260;2023-07-31T14:22:08;5.27;;;4.90;;
6432;SDS011;3249;42.690;23.260;2023-07-31T14:24:37;5.93;;;5.53;;
6432;SDS011;3249;42.690;23.260;2023-07-31T14:27:14;5.67;;;5.27;;
6432;SDS011;3249;42.690;23.260;2023-07-31T14:29:43;4.67;;;4.37;;
6432;SDS011;3249;42.690;23.260;2023-07-31T14:32:12;5.40;;;5.00;;
6432;SDS011;3249;42.690;23.260;2023-07-31T14:34:41;5.60;;;5.10;;
6432;SDS011;3249;42.690;23.260;2023-07-31T14:37:10;4.97;;;4.67;;
6432;SDS011;3249;42.690;23.260;2023-07-31T14:39:39;4.93;;;4.60;;
6432;SDS011;3249;42.690;23.260;2023-07-31T14:42:09;4.83;;;4.53;;
6432;SDS011;3249;42.690;23.260;2023-07-31T14:44:41;5.33;;;4.90;;
6432;SDS011;3249;42.690;23.260;2023-07-31T14:47:10;5.00;;;4.70;;
6432;SDS011;3249;42.690;23.260;2023-07-31T14:49:38;5.40;;;5.10;;
6432;SDS011;3249;42.690;23.260;2023-07-31T14:52:07;5.17;;;4.77;;
6432;SDS011;3249;42.690;23.260;2023-07-31T14:54:37;4.43;;;4.17;;
6432;SDS011;3249;42.690;23.260;2023-07-31T14:57:06;4.27;;;4.07;;
6432;SDS011;3249;42.690;23.260;2023-07-31T14:59:36;6.43;;;5.17;;
6432;SDS011;3249;42.690;23.260;2023-07-31T15:02:07;4.37;;;4.17;;
6432;SDS011;3249;42.690;23.260;2023-07-31T15:04:37;4.67;;;4.37;;
6432;SDS011;3249;42.690;23.260;2023-07-31T15:07:07;4.47;;;4.27;;
6432;SDS011;3249;42.690;23.260;2023-07-31T15:09:38;4.30;;;4.10;;
6432;SDS011;3249;42.690;23.260;2023-07-31T15:12:08;4.60;;;4.30;;
6432;SDS011;3249;42.690;23.260;2023-07-31T15:14:38;4.97;;;4.47;;